sensor_id;sensor_type;location;lat;lon;timestamp;P1;durP1;ratioP1;P2;durP2;ratioP2
3133;SDS011;1577;49.912;10.924;2023-09-07T00:01:48;8.17;;;5.27;;
3133;SDS011;1577;49.912;10.924;2023-09-07T00:04:13;7.10;;;5.70;;
3133;SDS011;1577;49.912;10.924;2023-09-07T00:06:42;5.90;;;4.73;;
3133;SDS011;1577;49.912;10.924;2023-09-07T00:09:10;6.77;;;5.57;;
3133;SDS011;1577;49.912;10.924;2023-09-07T00:11:41;6.70;;;5.40;;
3133;SDS011;1577;49.912;10.924;2023-09-07T00:14:06;8.67;;;5.57;;
3133;SDS011;1577;49.912;10.924;2023-09-07T00:16:32;7.23;;;5.27;;
3133;SDS011;1577;49.912;10.924;2023-09-07T00:19:03;10.40;;;5.13;;
3133;SDS011;1577;49.912;10.924;2023-09-07T00:21:29;14.57;;;6.37;;
3133;SDS011;1577;49.912;10.924;2023-09-07T00:23:54;7.60;;;5.80;;
3133;SDS011;1577;49.912;10.924;2023-09-07T00:26:20;7.20;;;5.20;;
3133;SDS011;1577;49.912;10.924;2023-09-07T00:28:46;8.50;;;5.10;;
3133;SDS011;1577;49.912;10.924;2023-09-07T00:31:12;8.10;;;5.23;;
3133;SDS011;1577;49.912;10.924;2023-09-07T00:33:38;7.80;;;5.43;;
3133;SDS011;1577;49.912;10.924;2023-09-07T00:36:03;6.87;;;5.73;;
3133;SDS011;1577;49.912;10.924;2023-09-07T00:38:29;10.77;;;5.43;;
3133;SDS011;1577;49.912;10.924;2023-09-07T00:40:55;10.13;;;5.90;;
3133;SDS011;1577;49.912;10.924;2023-09-07T00:43:21;5.90;;;5.20;;
3133;SDS011;1577;49.912;10.924;2023-09-07T00:45:46;6.90;;;5.70;;
3133;SDS011;1577;49.912;10.924;2023-09-07T00:48:13;6.80;;;5.20;;
3133;SDS011;1577;49.912;10.924;2023-09-07T00:50:41;6.27;;;5.17;;
3133;SDS011;1577;49.912;10.924;2023-09-07T00:53:08;6.80;;;5.40;;
3133;SDS011;1577;49.912;10.924;2023-09-07T00:55:35;8.83;;;5.47;;
3133;SDS011;1577;49.912;10.924;2023-09-07T00:58:01;8.00;;;5.70;;
3133;SDS011;1577;49.912;10.924;2023-09-07T01:00:31;7.10;;;5.43;;
3133;SDS011;1577;49.912;10.924;2023-09-07T01:02:57;8.73;;;5.07;;
3133;SDS011;1577;49.912;10.924;2023-09-07T01:05:24;9.03;;;5.83;;
3133;SDS011;1577;49.912;10.924;2023-09-07T01:07:58;9.37;;;4.93;;
3133;SDS011;1577;49.912;10.924;2023-09-07T01:10:29;7.03;;;5.47;;
3133;SDS011;1577;49.912;10.924;2023-09-07T01:12:55;11.40;;;5.70;;
3133;SDS011;1577;49.912;10.924;2023-09-07T01:15:20;6.87;;;5.20;;
3133;SDS011;1577;49.912;10.924;2023-09-07T01:17:46;8.23;;;5.80;;
3133;SDS011;1577;49.912;10.924;2023-09-07T01:20:12;11.20;;;6.07;;
3133;SDS011;1577;49.912;10.924;2023-09-07T01:22:41;6.57;;;5.80;;
3133;SDS011;1577;49.912;10.924;2023-09-07T01:25:08;9.53;;;6.33;;
3133;SDS011;1577;49.912;10.924;2023-09-07T01:27:34;8.13;;;6.80;;
3133;SDS011;1577;49.912;10.924;2023-09-07T01:30:00;7.97;;;6.47;;
3133;SDS011;1577;49.912;10.924;2023-09-07T01:32:27;8.97;;;6.97;;
3133;SDS011;1577;49.912;10.924;2023-09-07T01:34:55;9.70;;;6.50;;
3133;SDS011;1577;49.912;10.924;2023-09-07T01:37:23;9.30;;;6.77;;
3133;SDS011;1577;49.912;10.924;2023-09-07T01:39:48;9.50;;;6.27;;
3133;SDS011;1577;49.912;10.924;2023-09-07T01:42:15;12.23;;;6.90;;
3133;SDS011;1577;49.912;10.924;2023-09-07T01:44:40;8.63;;;6.67;;
3133;SDS011;1577;49.912;10.924;2023-09-07T01:47:06;8.10;;;6.60;;
3133;SDS011;1577;49.912;10.924;2023-09-07T01:49:31;11.63;;;7.10;;
3133;SDS011;1577;49.912;10.924;2023-09-07T01:51:57;7.33;;;6.03;;
3133;SDS011;1577;49.912;10.924;2023-09-07T01:54:22;11.03;;;6.80;;
3133;SDS011;1577;49.912;10.924;2023-09-07T01:56:48;10.50;;;6.90;;
3133;SDS011;1577;49.912;10.924;2023-09-07T01:59:14;9.60;;;6.50;;
3133;SDS011;1577;49.912;10.924;2023-09-07T02:01:39;8.27;;;6.10;;
3133;SDS011;1577;49.912;10.924;2023-09-07T02:04:05;9.30;;;6.90;;
3133;SDS011;1577;49.912;10.924;2023-09-07T02:06:31;8.20;;;6.53;;
3133;SDS011;1577;49.912;10.924;2023-09-07T02:08:56;9.03;;;7.03;;
3133;SDS011;1577;49.912;10.924;2023-09-07T02:11:22;8.77;;;6.20;;
3133;SDS011;1577;49.912;10.924;2023-09-07T02:13:48;8.83;;;6.90;;
3133;SDS011;1577;49.912;10.924;2023-09-07T02:16:13;8.50;;;5.90;;
3133;SDS011;1577;49.912;10.924;2023-09-07T02:18:39;8.33;;;7.33;;
3133;SDS011;1577;49.912;10.924;2023-09-07T02:21:08;10.70;;;7.20;;
3133;SDS011;1577;49.912;10.924;2023-09-07T02:23:34;7.67;;;5.93;;
3133;SDS011;1577;49.912;10.924;2023-09-07T02:26:02;8.63;;;6.47;;
3133;SDS011;1577;49.912;10.924;2023-09-07T02:28:28;12.37;;;8.00;;
3133;SDS011;1577;49.912;10.924;2023-09-07T02:30:53;12.17;;;6.87;;
3133;SDS011;1577;49.912;10.924;2023-09-07T02:33:19;10.27;;;7.30;;
3133;SDS011;1577;49.912;10.924;2023-09-07T02:35:47;11.60;;;7.73;;
3133;SDS011;1577;49.912;10.924;2023-09-07T02:38:14;10.83;;;8.00;;
3133;SDS011;1577;49.912;10.924;2023-09-07T02:40:42;9.37;;;7.93;;
3133;SDS011;1577;49.912;10.924;2023-09-07T02:43:09;9.60;;;7.70;;
3133;SDS011;1577;49.912;10.924;2023-09-07T02:45:37;10.90;;;8.00;;
3133;SDS011;1577;49.912;10.924;2023-09-07T02:48:04;8.83;;;7.60;;
3133;SDS011;1577;49.912;10.924;2023-09-07T02:50:31;10.70;;;7.37;;
3133;SDS011;1577;49.912;10.924;2023-09-07T02:52:58;9.83;;;8.50;;
3133;SDS011;1577;49.912;10.924;2023-09-07T02:55:25;14.33;;;8.80;;
3133;SDS011;1577;49.912;10.924;2023-09-07T02:57:51;11.23;;;9.10;;
3133;SDS011;1577;49.912;10.924;2023-09-07T03:00:16;10.97;;;8.20;;
3133;SDS011;1577;49.912;10.924;2023-09-07T03:02:42;11.63;;;7.90;;
3133;SDS011;1577;49.912;10.924;2023-09-07T03:05:08;10.53;;;8.17;;
3133;SDS011;1577;49.912;10.924;2023-09-07T03:07:34;10.00;;;8.30;;
3133;SDS011;1577;49.912;10.924;2023-09-07T03:10:00;10.80;;;8.53;;
3133;SDS011;1577;49.912;10.924;2023-09-07T03:12:26;12.50;;;9.27;;
3133;SDS011;1577;49.912;10.924;2023-09-07T03:14:52;17.00;;;9.00;;
3133;SDS011;1577;49.912;10.924;2023-09-07T03:17:18;11.50;;;8.93;;
3133;SDS011;1577;49.912;10.924;2023-09-07T03:19:45;11.00;;;8.80;;
3133;SDS011;1577;49.912;10.924;2023-09-07T03:22:11;10.40;;;8.13;;
3133;SDS011;1577;49.912;10.924;2023-09-07T03:24:37;10.83;;;8.87;;
3133;SDS011;1577;49.912;10.924;2023-09-07T03:27:03;9.73;;;8.00;;
3133;SDS011;1577;49.912;10.924;2023-09-07T03:29:30;10.47;;;8.80;;
3133;SDS011;1577;49.912;10.924;2023-09-07T03:31:58;12.70;;;9.30;;
3133;SDS011;1577;49.912;10.924;2023-09-07T03:34:27;10.10;;;8.00;;
3133;SDS011;1577;49.912;10.924;2023-09-07T03:36:53;10.20;;;8.20;;
3133;SDS011;1577;49.912;10.924;2023-09-07T03:39:18;9.07;;;7.20;;
3133;SDS011;1577;49.912;10.924;2023-09-07T03:41:47;9.60;;;7.43;;
3133;SDS011;1577;49.912;10.924;2023-09-07T03:44:12;10.40;;;8.10;;
3133;SDS011;1577;49.912;10.924;2023-09-07T03:46:38;12.60;;;8.47;;
3133;SDS011;1577;49.912;10.924;2023-09-07T03:49:04;15.10;;;8.40;;
3133;SDS011;1577;49.912;10.924;2023-09-07T03:51:29;12.80;;;7.97;;
3133;SDS011;1577;49.912;10.924;2023-09-07T03:53:55;10.90;;;8.20;;
3133;SDS011;1577;49.912;10.924;2023-09-07T03:56:20;13.10;;;9.50;;
3133;SDS011;1577;49.912;10.924;2023-09-07T03:58:46;11.43;;;9.20;;
3133;SDS011;1577;49.912;10.924;2023-09-07T04:01:12;12.60;;;8.90;;
3133;SDS011;1577;49.912;10.924;2023-09-07T04:03:39;10.93;;;8.57;;
3133;SDS011;1577;49.912;10.924;2023-09-07T04:06:05;10.03;;;8.73;;
3133;SDS011;1577;49.912;10.924;2023-09-07T04:08:31;10.57;;;8.80;;
3133;SDS011;1577;49.912;10.924;2023-09-07T04:10:57;10.70;;;8.90;;
3133;SDS011;1577;49.912;10.924;2023-09-07T04:13:23;12.20;;;8.53;;
3133;SDS011;1577;49.912;10.924;2023-09-07T04:15:48;11.90;;;9.43;;
3133;SDS011;1577;49.912;10.924;2023-09-07T04:18:14;11.33;;;8.90;;
3133;SDS011;1577;49.912;10.924;2023-09-07T04:20:41;11.03;;;8.50;;
3133;SDS011;1577;49.912;10.924;2023-09-07T04:23:07;11.77;;;9.10;;
3133;SDS011;1577;49.912;10.924;2023-09-07T04:25:32;11.20;;;8.87;;
3133;SDS011;1577;49.912;10.924;2023-09-07T04:27:58;12.03;;;9.00;;
3133;SDS011;1577;49.912;10.924;2023-09-07T04:30:24;11.17;;;9.83;;
3133;SDS011;1577;49.912;10.924;2023-09-07T04:32:49;11.17;;;9.07;;
3133;SDS011;1577;49.912;10.924;2023-09-07T04:35:15;15.40;;;8.70;;
3133;SDS011;1577;49.912;10.924;2023-09-07T04:37:44;10.03;;;8.13;;
3133;SDS011;1577;49.912;10.924;2023-09-07T04:40:10;10.20;;;8.80;;
3133;SDS011;1577;49.912;10.924;2023-09-07T04:42:36;12.20;;;8.50;;
3133;SDS011;1577;49.912;10.924;2023-09-07T04:45:04;12.13;;;8.80;;
3133;SDS011;1577;49.912;10.924;2023-09-07T04:47:30;10.27;;;8.20;;
3133;SDS011;1577;49.912;10.924;2023-09-07T04:49:55;11.13;;;9.00;;
3133;SDS011;1577;49.912;10.924;2023-09-07T04:52:21;14.70;;;8.03;;
3133;SDS011;1577;49.912;10.924;2023-09-07T04:54:47;10.27;;;7.80;;
3133;SDS011;1577;49.912;10.924;2023-09-07T04:57:15;16.63;;;8.70;;
3133;SDS011;1577;49.912;10.924;2023-09-07T04:59:43;12.63;;;9.70;;
3133;SDS011;1577;49.912;10.924;2023-09-07T05:02:08;12.57;;;9.00;;
3133;SDS011;1577;49.912;10.924;2023-09-07T05:04:34;13.93;;;8.83;;
3133;SDS011;1577;49.912;10.924;2023-09-07T05:06:59;11.50;;;9.03;;
3133;SDS011;1577;49.912;10.924;2023-09-07T05:09:25;12.33;;;9.60;;
3133;SDS011;1577;49.912;10.924;2023-09-07T05:11:51;10.27;;;8.63;;
3133;SDS011;1577;49.912;10.924;2023-09-07T05:14:17;14.90;;;9.77;;
3133;SDS011;1577;49.912;10.924;2023-09-07T05:16:43;12.23;;;9.33;;
3133;SDS011;1577;49.912;10.924;2023-09-07T05:19:09;13.97;;;9.87;;
3133;SDS011;1577;49.912;10.924;2023-09-07T05:21:34;10.63;;;8.80;;
3133;SDS011;1577;49.912;10.924;2023-09-07T05:24:00;13.30;;;9.60;;
3133;SDS011;1577;49.912;10.924;2023-09-07T05:26:26;13.30;;;9.10;;
3133;SDS011;1577;49.912;10.924;2023-09-07T05:28:51;12.63;;;10.03;;
3133;SDS011;1577;49.912;10.924;2023-09-07T05:31:17;13.97;;;10.17;;
3133;SDS011;1577;49.912;10.924;2023-09-07T05:33:43;12.10;;;9.23;;
3133;SDS011;1577;49.912;10.924;2023-09-07T05:36:08;12.60;;;8.60;;
3133;SDS011;1577;49.912;10.924;2023-09-07T05:38:34;12.20;;;9.10;;
3133;SDS011;1577;49.912;10.924;2023-09-07T05:40:59;11.33;;;9.43;;
3133;SDS011;1577;49.912;10.924;2023-09-07T05:43:25;11.87;;;9.03;;
3133;SDS011;1577;49.912;10.924;2023-09-07T05:45:51;11.73;;;9.63;;
3133;SDS011;1577;49.912;10.924;2023-09-07T05:48:16;12.20;;;8.80;;
3133;SDS011;1577;49.912;10.924;2023-09-07T05:50:42;11.73;;;9.03;;
3133;SDS011;1577;49.912;10.924;2023-09-07T05:53:08;14.33;;;7.87;;
3133;SDS011;1577;49.912;10.924;2023-09-07T05:55:34;12.60;;;10.07;;
3133;SDS011;1577;49.912;10.924;2023-09-07T05:58:04;10.90;;;8.73;;
3133;SDS011;1577;49.912;10.924;2023-09-07T06:00:31;12.30;;;9.10;;
3133;SDS011;1577;49.912;10.924;2023-09-07T06:02:56;15.67;;;7.73;;
3133;SDS011;1577;49.912;10.924;2023-09-07T06:05:22;7.70;;;5.87;;
3133;SDS011;1577;49.912;10.924;2023-09-07T06:07:48;9.80;;;5.60;;
3133;SDS011;1577;49.912;10.924;2023-09-07T06:10:14;6.67;;;4.97;;
3133;SDS011;1577;49.912;10.924;2023-09-07T06:12:42;7.60;;;4.87;;
3133;SDS011;1577;49.912;10.924;2023-09-07T06:15:08;8.17;;;4.90;;
3133;SDS011;1577;49.912;10.924;2023-09-07T06:17:35;6.10;;;4.47;;
3133;SDS011;1577;49.912;10.924;2023-09-07T06:20:01;7.70;;;5.20;;
3133;SDS011;1577;49.912;10.924;2023-09-07T06:22:27;6.73;;;4.87;;
3133;SDS011;1577;49.912;10.924;2023-09-07T06:24:53;8.10;;;4.87;;
3133;SDS011;1577;49.912;10.924;2023-09-07T06:27:19;8.77;;;4.50;;
3133;SDS011;1577;49.912;10.924;2023-09-07T06:29:45;10.43;;;8.23;;
3133;SDS011;1577;49.912;10.924;2023-09-07T06:32:11;9.33;;;5.00;;
3133;SDS011;1577;49.912;10.924;2023-09-07T06:37:41;8.90;;;4.53;;
3133;SDS011;1577;49.912;10.924;2023-09-07T06:40:08;9.70;;;4.40;;
3133;SDS011;1577;49.912;10.924;2023-09-07T06:42:35;7.33;;;4.37;;
3133;SDS011;1577;49.912;10.924;2023-09-07T06:45:01;8.53;;;4.57;;
3133;SDS011;1577;49.912;10.924;2023-09-07T06:47:27;7.97;;;4.10;;
3133;SDS011;1577;49.912;10.924;2023-09-07T06:49:53;7.40;;;4.43;;
3133;SDS011;1577;49.912;10.924;2023-09-07T06:52:19;5.80;;;4.00;;
3133;SDS011;1577;49.912;10.924;2023-09-07T06:54:45;7.73;;;4.63;;
3133;SDS011;1577;49.912;10.924;2023-09-07T06:57:11;9.50;;;5.17;;
3133;SDS011;1577;49.912;10.924;2023-09-07T06:59:37;9.47;;;3.93;;
3133;SDS011;1577;49.912;10.924;2023-09-07T07:02:03;8.67;;;3.60;;
3133;SDS011;1577;49.912;10.924;2023-09-07T07:04:30;6.73;;;3.60;;
3133;SDS011;1577;49.912;10.924;2023-09-07T07:06:56;7.90;;;3.10;;
3133;SDS011;1577;49.912;10.924;2023-09-07T07:09:21;9.40;;;3.30;;
3133;SDS011;1577;49.912;10.924;2023-09-07T07:11:47;6.07;;;3.60;;
3133;SDS011;1577;49.912;10.924;2023-09-07T07:14:14;5.43;;;3.43;;
3133;SDS011;1577;49.912;10.924;2023-09-07T07:16:40;6.50;;;4.37;;
3133;SDS011;1577;49.912;10.924;2023-09-07T07:19:06;7.70;;;4.07;;
3133;SDS011;1577;49.912;10.924;2023-09-07T07:21:32;5.10;;;3.30;;
3133;SDS011;1577;49.912;10.924;2023-09-07T07:23:58;6.90;;;3.23;;
3133;SDS011;1577;49.912;10.924;2023-09-07T07:26:24;6.60;;;2.97;;
3133;SDS011;1577;49.912;10.924;2023-09-07T07:28:50;5.17;;;3.37;;
3133;SDS011;1577;49.912;10.924;2023-09-07T07:31:16;6.53;;;3.33;;
3133;SDS011;1577;49.912;10.924;2023-09-07T07:33:42;8.00;;;3.10;;
3133;SDS011;1577;49.912;10.924;2023-09-07T07:36:07;6.27;;;2.90;;
3133;SDS011;1577;49.912;10.924;2023-09-07T07:38:34;5.90;;;2.60;;
3133;SDS011;1577;49.912;10.924;2023-09-07T07:41:00;4.87;;;2.80;;
3133;SDS011;1577;49.912;10.924;2023-09-07T07:43:26;9.87;;;3.10;;
3133;SDS011;1577;49.912;10.924;2023-09-07T07:45:53;10.73;;;2.93;;
3133;SDS011;1577;49.912;10.924;2023-09-07T07:48:20;6.60;;;3.57;;
3133;SDS011;1577;49.912;10.924;2023-09-07T07:50:45;7.53;;;2.93;;
3133;SDS011;1577;49.912;10.924;2023-09-07T07:53:11;5.90;;;2.60;;
3133;SDS011;1577;49.912;10.924;2023-09-07T07:55:38;5.07;;;2.67;;
3133;SDS011;1577;49.912;10.924;2023-09-07T07:58:06;8.10;;;2.50;;
3133;SDS011;1577;49.912;10.924;2023-09-07T08:00:35;5.27;;;2.60;;
3133;SDS011;1577;49.912;10.924;2023-09-07T08:03:01;5.23;;;2.60;;
3133;SDS011;1577;49.912;10.924;2023-09-07T08:05:28;4.20;;;2.13;;
3133;SDS011;1577;49.912;10.924;2023-09-07T08:07:55;4.70;;;2.00;;
3133;SDS011;1577;49.912;10.924;2023-09-07T08:10:21;4.43;;;2.13;;
3133;SDS011;1577;49.912;10.924;2023-09-07T08:12:47;5.27;;;2.37;;
3133;SDS011;1577;49.912;10.924;2023-09-07T08:15:13;5.57;;;1.90;;
3133;SDS011;1577;49.912;10.924;2023-09-07T08:17:40;3.83;;;2.13;;
3133;SDS011;1577;49.912;10.924;2023-09-07T08:20:06;4.43;;;1.97;;
3133;SDS011;1577;49.912;10.924;2023-09-07T08:22:36;3.60;;;2.13;;
3133;SDS011;1577;49.912;10.924;2023-09-07T08:25:05;6.07;;;2.07;;
3133;SDS011;1577;49.912;10.924;2023-09-07T08:27:32;3.83;;;2.17;;
3133;SDS011;1577;49.912;10.924;2023-09-07T08:29:58;3.63;;;2.00;;
3133;SDS011;1577;49.912;10.924;2023-09-07T08:32:24;3.13;;;1.70;;
3133;SDS011;1577;49.912;10.924;2023-09-07T08:34:50;4.83;;;2.03;;
3133;SDS011;1577;49.912;10.924;2023-09-07T08:37:21;3.90;;;2.13;;
3133;SDS011;1577;49.912;10.924;2023-09-07T08:39:48;3.63;;;1.70;;
3133;SDS011;1577;49.912;10.924;2023-09-07T08:42:13;4.10;;;2.13;;
3133;SDS011;1577;49.912;10.924;2023-09-07T08:44:39;3.93;;;2.00;;
3133;SDS011;1577;49.912;10.924;2023-09-07T08:47:08;6.10;;;2.10;;
3133;SDS011;1577;49.912;10.924;2023-09-07T08:49:34;6.17;;;2.40;;
3133;SDS011;1577;49.912;10.924;2023-09-07T08:52:02;4.83;;;2.20;;
3133;SDS011;1577;49.912;10.924;2023-09-07T08:54:29;4.93;;;2.37;;
3133;SDS011;1577;49.912;10.924;2023-09-07T08:56:56;4.63;;;2.00;;
3133;SDS011;1577;49.912;10.924;2023-09-07T08:59:22;6.33;;;2.20;;
3133;SDS011;1577;49.912;10.924;2023-09-07T09:01:48;4.80;;;2.30;;
3133;SDS011;1577;49.912;10.924;2023-09-07T09:04:14;4.10;;;2.50;;
3133;SDS011;1577;49.912;10.924;2023-09-07T09:06:41;3.67;;;1.77;;
3133;SDS011;1577;49.912;10.924;2023-09-07T09:09:07;3.20;;;1.70;;
3133;SDS011;1577;49.912;10.924;2023-09-07T09:11:33;3.87;;;2.10;;
3133;SDS011;1577;49.912;10.924;2023-09-07T09:13:59;3.30;;;1.73;;
3133;SDS011;1577;49.912;10.924;2023-09-07T09:16:25;4.40;;;1.93;;
3133;SDS011;1577;49.912;10.924;2023-09-07T09:18:51;3.90;;;1.83;;
3133;SDS011;1577;49.912;10.924;2023-09-07T09:21:21;4.90;;;2.10;;
3133;SDS011;1577;49.912;10.924;2023-09-07T09:23:53;4.37;;;2.00;;
3133;SDS011;1577;49.912;10.924;2023-09-07T09:26:20;4.53;;;2.20;;
3133;SDS011;1577;49.912;10.924;2023-09-07T09:28:46;6.30;;;2.33;;
3133;SDS011;1577;49.912;10.924;2023-09-07T09:31:12;4.40;;;2.57;;
3133;SDS011;1577;49.912;10.924;2023-09-07T09:33:39;4.63;;;2.40;;
3133;SDS011;1577;49.912;10.924;2023-09-07T09:36:06;4.07;;;2.07;;
3133;SDS011;1577;49.912;10.924;2023-09-07T09:38:32;7.20;;;2.23;;
3133;SDS011;1577;49.912;10.924;2023-09-07T09:40:58;5.17;;;2.40;;
3133;SDS011;1577;49.912;10.924;2023-09-07T09:43:25;5.53;;;2.33;;
3133;SDS011;1577;49.912;10.924;2023-09-07T09:45:51;4.07;;;2.00;;
3133;SDS011;1577;49.912;10.924;2023-09-07T09:48:21;4.50;;;2.63;;
3133;SDS011;1577;49.912;10.924;2023-09-07T09:50:47;7.40;;;2.10;;
3133;SDS011;1577;49.912;10.924;2023-09-07T09:53:14;4.20;;;2.00;;
3133;SDS011;1577;49.912;10.924;2023-09-07T09:55:43;3.80;;;2.30;;
3133;SDS011;1577;49.912;10.924;2023-09-07T09:58:09;4.30;;;2.30;;
3133;SDS011;1577;49.912;10.924;2023-09-07T10:00:35;4.43;;;1.90;;
3133;SDS011;1577;49.912;10.924;2023-09-07T10:03:10;3.30;;;1.93;;
3133;SDS011;1577;49.912;10.924;2023-09-07T10:05:36;5.37;;;2.40;;
3133;SDS011;1577;49.912;10.924;2023-09-07T10:08:07;4.20;;;2.63;;
3133;SDS011;1577;49.912;10.924;2023-09-07T10:10:34;4.90;;;2.77;;
3133;SDS011;1577;49.912;10.924;2023-09-07T10:13:04;4.20;;;2.70;;
3133;SDS011;1577;49.912;10.924;2023-09-07T10:15:30;4.70;;;2.37;;
3133;SDS011;1577;49.912;10.924;2023-09-07T10:20:34;4.50;;;2.37;;
3133;SDS011;1577;49.912;10.924;2023-09-07T10:23:04;4.10;;;2.53;;
3133;SDS011;1577;49.912;10.924;2023-09-07T10:25:30;4.50;;;2.83;;
3133;SDS011;1577;49.912;10.924;2023-09-07T10:27:57;4.07;;;2.67;;
3133;SDS011;1577;49.912;10.924;2023-09-07T10:30:24;4.00;;;2.70;;
3133;SDS011;1577;49.912;10.924;2023-09-07T10:32:50;3.80;;;2.10;;
3133;SDS011;1577;49.912;10.924;2023-09-07T10:35:18;6.63;;;2.77;;
3133;SDS011;1577;49.912;10.924;2023-09-07T10:37:47;4.13;;;2.20;;
3133;SDS011;1577;49.912;10.924;2023-09-07T10:40:18;4.30;;;2.23;;
3133;SDS011;1577;49.912;10.924;2023-09-07T10:42:44;7.60;;;2.50;;
3133;SDS011;1577;49.912;10.924;2023-09-07T10:45:11;5.30;;;2.73;;
3133;SDS011;1577;49.912;10.924;2023-09-07T10:47:44;4.10;;;2.37;;
3133;SDS011;1577;49.912;10.924;2023-09-07T10:50:11;5.40;;;2.60;;
3133;SDS011;1577;49.912;10.924;2023-09-07T10:52:38;7.17;;;3.03;;
3133;SDS011;1577;49.912;10.924;2023-09-07T10:55:05;7.30;;;2.30;;
3133;SDS011;1577;49.912;10.924;2023-09-07T10:57:31;4.40;;;2.50;;
3133;SDS011;1577;49.912;10.924;2023-09-07T10:59:57;5.30;;;2.50;;
3133;SDS011;1577;49.912;10.924;2023-09-07T11:02:23;4.80;;;2.63;;
3133;SDS011;1577;49.912;10.924;2023-09-07T11:04:49;7.73;;;2.53;;
3133;SDS011;1577;49.912;10.924;2023-09-07T11:07:15;4.60;;;3.10;;
3133;SDS011;1577;49.912;10.924;2023-09-07T11:09:42;9.53;;;2.80;;
3133;SDS011;1577;49.912;10.924;2023-09-07T11:12:12;4.07;;;2.27;;
3133;SDS011;1577;49.912;10.924;2023-09-07T11:14:40;4.57;;;2.80;;
3133;SDS011;1577;49.912;10.924;2023-09-07T11:17:06;3.80;;;2.50;;
3133;SDS011;1577;49.912;10.924;2023-09-07T11:19:33;3.57;;;2.50;;
3133;SDS011;1577;49.912;10.924;2023-09-07T11:21:59;3.90;;;2.70;;
3133;SDS011;1577;49.912;10.924;2023-09-07T11:24:25;4.63;;;3.17;;
3133;SDS011;1577;49.912;10.924;2023-09-07T11:26:51;4.50;;;2.47;;
3133;SDS011;1577;49.912;10.924;2023-09-07T11:29:17;5.43;;;2.87;;
3133;SDS011;1577;49.912;10.924;2023-09-07T11:31:44;5.03;;;2.50;;
3133;SDS011;1577;49.912;10.924;2023-09-07T11:34:10;5.07;;;2.43;;
3133;SDS011;1577;49.912;10.924;2023-09-07T11:36:36;4.23;;;2.67;;
3133;SDS011;1577;49.912;10.924;2023-09-07T11:39:02;4.03;;;2.60;;
3133;SDS011;1577;49.912;10.924;2023-09-07T11:41:37;3.40;;;2.27;;
3133;SDS011;1577;49.912;10.924;2023-09-07T11:44:02;5.00;;;2.50;;
3133;SDS011;1577;49.912;10.924;2023-09-07T11:46:28;4.23;;;2.40;;
3133;SDS011;1577;49.912;10.924;2023-09-07T11:48:55;4.80;;;2.60;;
3133;SDS011;1577;49.912;10.924;2023-09-07T11:51:21;3.70;;;2.47;;
3133;SDS011;1577;49.912;10.924;2023-09-07T11:53:47;5.03;;;2.60;;
3133;SDS011;1577;49.912;10.924;2023-09-07T11:56:14;3.67;;;1.97;;
3133;SDS011;1577;49.912;10.924;2023-09-07T11:58:40;6.60;;;2.63;;
3133;SDS011;1577;49.912;10.924;2023-09-07T12:01:08;3.80;;;2.40;;
3133;SDS011;1577;49.912;10.924;2023-09-07T12:03:34;4.17;;;2.60;;
3133;SDS011;1577;49.912;10.924;2023-09-07T12:06:00;3.70;;;2.33;;
3133;SDS011;1577;49.912;10.924;2023-09-07T12:08:27;4.67;;;2.40;;
3133;SDS011;1577;49.912;10.924;2023-09-07T12:10:53;3.37;;;2.03;;
3133;SDS011;1577;49.912;10.924;2023-09-07T12:13:22;5.07;;;2.43;;
3133;SDS011;1577;49.912;10.924;2023-09-07T12:15:49;5.63;;;2.53;;
3133;SDS011;1577;49.912;10.924;2023-09-07T12:18:15;6.50;;;2.13;;
3133;SDS011;1577;49.912;10.924;2023-09-07T12:20:41;3.90;;;2.37;;
3133;SDS011;1577;49.912;10.924;2023-09-07T12:23:09;4.27;;;2.33;;
3133;SDS011;1577;49.912;10.924;2023-09-07T12:25:35;4.90;;;2.87;;
3133;SDS011;1577;49.912;10.924;2023-09-07T12:28:02;6.50;;;2.53;;
3133;SDS011;1577;49.912;10.924;2023-09-07T12:30:28;4.17;;;2.73;;
3133;SDS011;1577;49.912;10.924;2023-09-07T12:32:54;4.43;;;2.30;;
3133;SDS011;1577;49.912;10.924;2023-09-07T12:35:20;4.90;;;2.30;;
3133;SDS011;1577;49.912;10.924;2023-09-07T12:37:46;4.40;;;2.27;;
3133;SDS011;1577;49.912;10.924;2023-09-07T12:40:12;4.53;;;1.90;;
3133;SDS011;1577;49.912;10.924;2023-09-07T12:42:39;4.10;;;2.50;;
3133;SDS011;1577;49.912;10.924;2023-09-07T12:45:06;5.80;;;2.20;;
3133;SDS011;1577;49.912;10.924;2023-09-07T12:47:32;4.47;;;2.53;;
3133;SDS011;1577;49.912;10.924;2023-09-07T12:49:58;3.80;;;2.40;;
3133;SDS011;1577;49.912;10.924;2023-09-07T12:52:24;5.50;;;2.63;;
3133;SDS011;1577;49.912;10.924;2023-09-07T12:54:50;3.80;;;2.00;;
3133;SDS011;1577;49.912;10.924;2023-09-07T12:57:16;4.10;;;2.33;;
3133;SDS011;1577;49.912;10.924;2023-09-07T12:59:42;4.17;;;2.60;;
3133;SDS011;1577;49.912;10.924;2023-09-07T13:02:07;3.83;;;2.57;;
3133;SDS011;1577;49.912;10.924;2023-09-07T13:04:33;5.20;;;2.60;;
3133;SDS011;1577;49.912;10.924;2023-09-07T13:07:00;4.53;;;2.10;;
3133;SDS011;1577;49.912;10.924;2023-09-07T13:09:27;3.77;;;2.20;;
3133;SDS011;1577;49.912;10.924;2023-09-07T13:11:53;3.37;;;2.30;;
3133;SDS011;1577;49.912;10.924;2023-09-07T13:14:19;4.37;;;2.13;;
3133;SDS011;1577;49.912;10.924;2023-09-07T13:16:44;6.00;;;2.37;;
3133;SDS011;1577;49.912;10.924;2023-09-07T13:19:10;3.70;;;2.20;;
3133;SDS011;1577;49.912;10.924;2023-09-07T13:21:36;7.60;;;2.70;;
3133;SDS011;1577;49.912;10.924;2023-09-07T13:24:03;3.90;;;2.50;;
3133;SDS011;1577;49.912;10.924;2023-09-07T13:26:29;6.00;;;2.40;;
3133;SDS011;1577;49.912;10.924;2023-09-07T13:28:55;7.47;;;2.63;;
3133;SDS011;1577;49.912;10.924;2023-09-07T13:31:21;4.83;;;2.33;;
3133;SDS011;1577;49.912;10.924;2023-09-07T13:33:48;6.07;;;2.37;;
3133;SDS011;1577;49.912;10.924;2023-09-07T13:36:14;4.73;;;2.10;;
3133;SDS011;1577;49.912;10.924;2023-09-07T13:38:42;3.73;;;2.10;;
3133;SDS011;1577;49.912;10.924;2023-09-07T13:41:08;5.73;;;2.37;;
3133;SDS011;1577;49.912;10.924;2023-09-07T13:43:34;3.80;;;2.37;;
3133;SDS011;1577;49.912;10.924;2023-09-07T13:46:00;3.73;;;2.20;;
3133;SDS011;1577;49.912;10.924;2023-09-07T13:48:26;3.97;;;2.10;;
3133;SDS011;1577;49.912;10.924;2023-09-07T13:50:52;4.03;;;2.20;;
3133;SDS011;1577;49.912;10.924;2023-09-07T13:53:18;5.00;;;2.03;;
3133;SDS011;1577;49.912;10.924;2023-09-07T13:55:44;4.10;;;2.50;;
3133;SDS011;1577;49.912;10.924;2023-09-07T13:58:11;4.13;;;2.40;;
3133;SDS011;1577;49.912;10.924;2023-09-07T14:00:37;5.63;;;2.30;;
3133;SDS011;1577;49.912;10.924;2023-09-07T14:03:03;3.63;;;2.00;;
3133;SDS011;1577;49.912;10.924;2023-09-07T14:05:29;5.83;;;2.20;;
3133;SDS011;1577;49.912;10.924;2023-09-07T14:07:55;3.30;;;1.90;;
3133;SDS011;1577;49.912;10.924;2023-09-07T14:10:24;4.80;;;2.73;;
3133;SDS011;1577;49.912;10.924;2023-09-07T14:12:50;4.33;;;2.10;;
3133;SDS011;1577;49.912;10.924;2023-09-07T14:15:16;3.53;;;2.20;;
3133;SDS011;1577;49.912;10.924;2023-09-07T14:17:42;4.90;;;2.33;;
3133;SDS011;1577;49.912;10.924;2023-09-07T14:20:08;3.40;;;1.90;;
3133;SDS011;1577;49.912;10.924;2023-09-07T14:22:35;4.57;;;2.20;;
3133;SDS011;1577;49.912;10.924;2023-09-07T14:25:01;4.03;;;2.33;;
3133;SDS011;1577;49.912;10.924;2023-09-07T14:27:27;4.23;;;2.17;;
3133;SDS011;1577;49.912;10.924;2023-09-07T14:29:56;4.60;;;2.40;;
3133;SDS011;1577;49.912;10.924;2023-09-07T14:32:22;4.23;;;2.03;;
3133;SDS011;1577;49.912;10.924;2023-09-07T14:34:48;3.77;;;1.93;;
3133;SDS011;1577;49.912;10.924;2023-09-07T14:37:14;3.40;;;2.10;;
3133;SDS011;1577;49.912;10.924;2023-09-07T14:39:40;3.67;;;2.20;;
3133;SDS011;1577;49.912;10.924;2023-09-07T14:42:12;4.03;;;2.90;;
3133;SDS011;1577;49.912;10.924;2023-09-07T14:44:41;3.57;;;2.23;;
3133;SDS011;1577;49.912;10.924;2023-09-07T14:47:07;6.30;;;2.33;;
3133;SDS011;1577;49.912;10.924;2023-09-07T14:49:35;5.03;;;2.40;;
3133;SDS011;1577;49.912;10.924;2023-09-07T14:52:01;3.30;;;2.30;;
3133;SDS011;1577;49.912;10.924;2023-09-07T14:54:27;5.00;;;2.30;;
3133;SDS011;1577;49.912;10.924;2023-09-07T14:56:53;5.10;;;2.63;;
3133;SDS011;1577;49.912;10.924;2023-09-07T14:59:19;4.90;;;2.30;;